Time;durP1;ratioP1;P1;durP2;ratioP2;P2;SDS_P1;SDS_P2;PMS_P1;PMS_P2;Temp;Humidity;BMP_temperature;BMP_pressure;BME280_temperature;BME280_humidity;BME280_pressure;Samples;Min_cycle;Max_cycle;Signal;HPM_P1;HPM_P2
2022/07/31 00:00:42;;;;;;;1.13;1.02;;;22.00;99.90;;;22.46;68.29;100194.84;5036277;28;20688;-61
2022/07/31 00:03:30;;;;;;;0.98;0.88;;;;;;;22.44;68.48;100191.34;5064437;28;20205;-61
2022/07/31 00:06:18;;;;;;;0.98;0.88;;;22.00;99.90;;;22.41;69.06;100204.94;5045258;28;20223;-61
2022/07/31 00:09:07;;;;;;;3.50;2.03;;;;;;;22.40;69.04;100213.09;5064077;28;20701;-61
2022/07/31 00:12:16;;;;;;;2.00;1.30;;;21.70;99.90;;;22.40;68.83;100210.38;5043088;28;20194;-61
2022/07/31 00:15:08;;;;;;;2.22;1.42;;;21.60;99.90;;;22.39;68.65;100216.72;5050752;28;20716;-61
2022/07/31 00:17:57;;;;;;;0.50;0.40;;;;;;;22.39;69.31;100228.38;5032519;28;20225;-62
2022/07/31 00:20:46;;;;;;;1.45;1.05;;;;;;;22.30;69.73;100236.84;5046033;28;20205;-61
2022/07/31 00:23:34;;;;;;;2.08;1.30;;;;;;;22.31;69.36;100230.53;5045940;28;20206;-62
2022/07/31 00:26:22;;;;;;;4.88;2.17;;;22.10;99.90;;;22.27;69.46;100229.78;5038401;28;20238;-62
2022/07/31 00:29:11;;;;;;;17.70;4.82;;;;;;;22.22;70.79;100245.25;5059606;28;20229;-62
2022/07/31 00:32:03;;;;;;;13.20;4.07;;;21.60;99.90;;;22.15;72.29;100256.34;5041995;28;20670;-61
2022/07/31 00:34:52;;;;;;;9.27;3.40;;;21.90;99.90;;;22.16;71.55;100264.38;5035715;28;20237;-61
2022/07/31 00:37:41;;;;;;;7.53;3.08;;;22.40;99.90;;;22.10;71.42;100261.88;5037469;28;20198;-61
2022/07/31 00:40:29;;;;;;;7.57;3.25;;;;;;;22.09;72.50;100278.09;5038516;28;20202;-61
2022/07/31 00:43:19;;;;;;;1.17;0.95;;;;;;;21.96;73.12;100275.00;5038765;28;20194;-61
2022/07/31 00:46:08;;;;;;;0.60;0.50;;;;;;;21.96;72.22;100273.19;5038885;28;20225;-61
2022/07/31 00:49:02;;;;;;;0.60;0.60;;;;;;;21.84;73.23;100272.81;5040119;28;20233;-61
2022/07/31 00:51:51;;;;;;;0.43;0.43;;;;;;;21.74;74.63;100291.13;5034174;28;20211;-62
2022/07/31 00:54:39;;;;;;;0.50;0.50;;;21.40;99.90;;;21.68;74.77;100286.88;5050817;28;20241;-61
2022/07/31 00:57:27;;;;;;;0.45;0.45;;;21.30;99.90;;;21.70;72.91;100285.00;5049194;28;20201;-62
2022/07/31 01:00:16;;;;;;;0.20;0.20;;;21.40;99.90;;;21.74;72.62;100288.44;5045712;28;20237;-61
2022/07/31 01:03:04;;;;;;;0.30;0.30;;;;;;;21.58;74.23;100298.03;5017687;28;20210;-61
2022/07/31 01:05:53;;;;;;;0.40;0.40;;;;;;;21.13;79.03;100317.63;5030164;28;20231;-61
2022/07/31 01:08:41;;;;;;;0.30;0.30;;;;;;;20.90;80.83;100334.56;5026133;28;20225;-61
2022/07/31 01:11:59;;;;;;;0.30;0.30;;;21.20;99.90;;;20.60;82.51;100354.41;5032144;28;20218;-61
2022/07/31 01:14:52;;;;;;;0.68;0.68;;;20.60;99.90;;;20.63;82.87;100383.84;5036383;28;20229;-61
2022/07/31 01:17:44;;;;;;;0.50;0.50;;;20.60;99.90;;;20.55;83.31;100392.16;5018424;28;20198;-62
2022/07/31 01:20:33;;;;;;;0.60;0.60;;;20.10;99.90;;;20.42;83.98;100413.16;5035478;28;20203;-61
2022/07/31 01:23:55;;;;;;;0.88;0.88;;;20.40;99.90;;;20.46;83.85;100427.38;5024989;28;20704;-61
2022/07/31 01:27:02;;;;;;;0.60;0.60;;;20.20;99.90;;;20.24;84.69;100432.50;5055817;28;20572;-61
2022/07/31 01:29:55;;;;;;;0.32;0.32;;;20.30;99.90;;;20.18;84.34;100431.81;5021508;28;20294;-61
2022/07/31 01:32:48;;;;;;;0.30;0.30;;;20.10;99.90;;;20.22;84.39;100446.91;5021227;28;20709;-61
2022/07/31 01:35:53;;;;;;;0.45;0.45;;;20.00;99.90;;;20.04;85.29;100454.59;5023049;28;20227;-61
2022/07/31 01:38:47;;;;;;;0.40;0.40;;;20.50;99.90;;;19.92;84.68;100440.66;5042838;28;20217;-61
2022/07/31 01:41:44;;;;;;;0.40;0.40;;;19.90;99.90;;;19.87;84.94;100443.47;5041208;28;20214;-61
2022/07/31 01:44:41;;;;;;;0.50;0.50;;;19.70;99.90;;;19.86;84.99;100449.75;5028463;28;20231;-61
2022/07/31 01:47:32;;;;;;;0.47;0.47;;;19.70;99.90;;;19.92;83.86;100454.06;5040803;28;20211;-61
2022/07/31 01:50:22;;;;;;;0.50;0.50;;;19.80;99.90;;;19.75;85.04;100446.50;5046817;28;20223;-61
2022/07/31 01:53:30;;;;;;;0.30;0.30;;;19.60;99.90;;;19.47;86.20;100452.56;5037797;28;20205;-62
2022/07/31 01:56:20;;;;;;;0.85;0.85;;;19.20;99.90;;;19.44;85.93;100452.66;5036340;28;20221;-61
2022/07/31 01:59:10;;;;;;;0.50;0.50;;;19.40;99.90;;;19.34;86.37;100456.50;5020969;28;20217;-61
2022/07/31 02:02:29;;;;;;;0.43;0.43;;;19.10;99.90;;;19.25;86.50;100459.44;5032799;28;20554;-61
2022/07/31 02:05:20;;;;;;;0.82;0.80;;;19.00;99.90;;;19.16;87.19;100468.59;5039936;28;20214;-61
2022/07/31 02:08:10;;;;;;;0.70;0.63;;;19.00;99.90;;;19.21;86.71;100489.91;5025474;28;20702;-61
2022/07/31 02:11:02;;;;;;;1.00;0.90;;;19.30;99.90;;;19.25;88.00;100512.16;5054477;28;20206;-61
2022/07/31 02:13:53;;;;;;;0.50;0.50;;;18.70;99.90;;;19.00;88.96;100501.19;5039900;28;20197;-61
2022/07/31 02:16:42;;;;;;;1.00;0.90;;;;;;;18.96;90.41;100529.84;5041558;28;20190;-61
2022/07/31 02:19:39;;;;;;;1.70;1.20;;;18.80;99.90;;;18.90;90.30;100534.47;5053283;28;20198;-61
2022/07/31 02:22:47;;;;;;;3.78;2.05;;;19.10;99.90;;;19.03;87.35;100530.59;5041427;28;20663;-61
2022/07/31 02:25:36;;;;;;;0.70;0.70;;;18.60;99.90;;;18.88;89.86;100544.34;5047094;28;20210;-61
2022/07/31 02:28:26;;;;;;;0.60;0.55;;;18.50;99.90;;;18.83;89.02;100533.75;5020444;28;20222;-61
2022/07/31 02:31:16;;;;;;;0.80;0.70;;;18.60;99.90;;;18.99;87.33;100534.25;5035295;28;20207;-61
2022/07/31 02:34:06;;;;;;;1.92;1.50;;;;;;;18.82;89.59;100550.72;5046495;28;20202;-61
2022/07/31 02:36:55;;;;;;;2.30;2.10;;;19.10;99.90;;;18.65;90.65;100542.19;5020708;28;20210;-61
2022/07/31 02:39:44;;;;;;;2.00;1.52;;;18.90;99.90;;;18.17;91.41;100527.09;5046271;28;20187;-61
2022/07/31 02:42:33;;;;;;;1.38;1.08;;;18.40;99.90;;;18.45;90.76;100531.88;5034346;28;20205;-61
2022/07/31 02:45:22;;;;;;;2.72;1.92;;;18.40;99.90;;;18.58;90.28;100559.28;5036759;28;20225;-61
2022/07/31 02:48:11;;;;;;;6.78;2.72;;;17.90;99.90;;;18.58;89.67;100560.16;5031280;28;20202;-61
2022/07/31 02:51:05;;;;;;;14.13;4.10;;;18.40;99.90;;;18.47;90.46;100554.16;5021042;28;20195;-61
2022/07/31 02:53:54;;;;;;;6.90;2.15;;;17.90;99.90;;;18.37;90.47;100547.22;5049488;28;20213;-61
2022/07/31 02:56:46;;;;;;;15.93;4.63;;;18.20;99.90;;;18.45;90.93;100564.03;5023581;28;20213;-61
2022/07/31 02:59:38;;;;;;;13.57;4.25;;;18.10;99.90;;;18.43;91.79;100576.56;5037321;28;20209;-61
2022/07/31 03:02:28;;;;;;;13.93;4.20;;;;;;;18.62;89.52;100575.28;5032247;28;20213;-60
2022/07/31 03:05:25;;;;;;;7.60;2.95;;;;;;;18.64;88.80;100560.06;5023965;28;20615;-61
2022/07/31 03:08:14;;;;;;;0.98;0.88;;;18.10;99.90;;;18.34;90.48;100561.56;5038582;28;20670;-61
2022/07/31 03:11:06;;;;;;;0.40;0.40;;;;;;;18.45;91.57;100580.97;5039695;28;20328;-61
2022/07/31 03:13:57;;;;;;;0.50;0.50;;;18.40;99.90;;;18.72;91.14;100616.16;5039066;28;20217;-61
2022/07/31 03:16:47;;;;;;;0.30;0.30;;;18.50;99.90;;;18.83;89.53;100616.81;5028287;28;20229;-61
2022/07/31 03:19:35;;;;;;;1.00;1.00;;;18.60;99.90;;;18.79;91.06;100626.69;5050636;28;20218;-61
2022/07/31 03:22:27;;;;;;;0.50;0.50;;;;;;;18.57;93.04;100636.06;5028515;28;20209;-61
2022/07/31 03:25:16;;;;;;;0.60;0.60;;;18.80;99.90;;;18.50;91.78;100624.59;5038533;28;20217;-60
2022/07/31 03:28:08;;;;;;;0.40;0.40;;;18.60;99.90;;;18.53;91.31;100619.19;5052430;28;20209;-61
2022/07/31 03:30:57;;;;;;;0.50;0.50;;;18.40;99.90;;;18.61;89.49;100607.44;5038576;28;20206;-61
2022/07/31 03:33:48;;;;;;;0.52;0.52;;;18.40;99.90;;;18.49;90.21;100609.44;5046924;28;20203;-61
2022/07/31 03:36:38;;;;;;;0.50;0.50;;;18.20;99.90;;;18.31;90.89;100604.47;5033603;28;20198;-61
2022/07/31 03:39:26;;;;;;;0.60;0.60;;;17.70;99.90;;;18.20;91.58;100606.44;5025620;28;20214;-61
2022/07/31 03:42:19;;;;;;;0.52;0.52;;;17.90;99.90;;;18.17;92.19;100611.84;5037715;28;20217;-61
2022/07/31 03:45:09;;;;;;;0.50;0.50;;;18.50;99.90;;;18.23;92.44;100631.38;5052287;28;20222;-61
2022/07/31 03:47:58;;;;;;;0.60;0.60;;;17.90;99.90;;;18.20;93.42;100646.59;5024884;28;20212;-61
2022/07/31 03:50:47;;;;;;;0.60;0.60;;;;;;;18.22;93.82;100661.75;5046957;28;20237;-61
2022/07/31 03:53:36;;;;;;;0.30;0.30;;;;;;;18.08;93.88;100653.06;5019097;28;20218;-61
2022/07/31 03:56:27;;;;;;;0.50;0.50;;;17.60;99.90;;;18.30;92.75;100666.06;5028121;28;20222;-61
2022/07/31 03:59:17;;;;;;;0.45;0.45;;;18.00;99.90;;;18.20;92.93;100662.66;5041767;28;20205;-61
2022/07/31 04:02:06;;;;;;;0.40;0.40;;;;;;;18.21;92.93;100664.44;5005594;28;20209;-61
2022/07/31 04:05:01;;;;;;;0.40;0.40;;;18.00;99.90;;;18.23;92.47;100668.88;5033661;28;20237;-61
2022/07/31 04:07:58;;;;;;;0.50;0.50;;;17.90;99.90;;;18.25;91.87;100670.63;5027054;28;20206;-61
2022/07/31 04:10:47;;;;;;;0.57;0.57;;;;;;;18.34;91.80;100673.13;5030496;28;20226;-61
2022/07/31 04:13:38;;;;;;;0.50;0.50;;;;;;;18.43;91.27;100686.34;5051140;28;20209;-61
2022/07/31 04:16:27;;;;;;;0.45;0.45;;;;;;;18.40;91.22;100681.06;5007148;28;20230;-61
2022/07/31 04:19:15;;;;;;;0.43;0.43;;;18.60;99.90;;;18.46;90.87;100678.25;5027280;28;20268;-61
2022/07/31 04:22:04;;;;;;;0.50;0.50;;;;;;;18.52;90.41;100679.00;5037421;28;20202;-61
2022/07/31 04:24:53;;;;;;;0.60;0.60;;;;;;;18.62;89.83;100682.44;5017927;28;20218;-61
2022/07/31 04:28:11;;;;;;;0.60;0.60;;;;;;;18.61;90.19;100694.06;5034517;28;20221;-61
2022/07/31 04:30:59;;;;;;;0.70;0.70;;;;;;;18.64;90.59;100695.78;5007707;28;20233;-61
2022/07/31 04:33:50;;;;;;;0.70;0.70;;;;;;;18.73;90.75;100709.88;5030653;28;20209;-61
2022/07/31 04:36:43;;;;;;;0.60;0.60;;;18.30;99.90;;;18.76;90.29;100707.16;5025926;28;20217;-61
2022/07/31 04:39:31;;;;;;;0.70;0.70;;;19.00;99.90;;;18.83;88.70;100697.19;5047819;28;20210;-61
2022/07/31 04:42:21;;;;;;;0.52;0.50;;;;;;;18.94;88.90;100707.69;5025112;28;20205;-61
2022/07/31 04:45:10;;;;;;;0.70;0.70;;;;;;;18.89;89.27;100707.78;5037876;28;20217;-61
2022/07/31 04:47:58;;;;;;;0.70;0.70;;;18.20;99.90;;;18.93;88.66;100703.25;5019104;28;20217;-61
2022/07/31 04:50:47;;;;;;;0.80;0.80;;;;;;;18.88;89.31;100708.69;5031436;28;20233;-60
2022/07/31 04:53:35;;;;;;;0.60;0.55;;;18.50;99.90;;;18.92;90.00;100714.88;5066265;28;20210;-61
2022/07/31 04:56:41;;;;;;;1.17;1.08;;;;;;;18.94;89.98;100723.75;5034768;28;20233;-61
2022/07/31 04:59:29;;;;;;;0.98;0.88;;;18.40;99.90;;;19.00;89.77;100726.31;5054872;28;20205;-61
2022/07/31 05:02:37;;;;;;;0.50;0.50;;;19.10;99.90;;;19.04;89.37;100730.69;5024867;28;20194;-61
2022/07/31 05:05:26;;;;;;;0.50;0.50;;;;;;;19.11;90.00;100738.56;5013073;28;20257;-61
2022/07/31 05:08:14;;;;;;;1.00;0.90;;;;;;;19.11;90.06;100743.94;5033965;28;20599;-61
2022/07/31 05:11:21;;;;;;;0.95;0.85;;;18.90;99.90;;;19.12;90.56;100751.06;5023998;28;20698;-61
2022/07/31 05:14:12;;;;;;;0.95;0.70;;;18.90;99.90;;;19.24;90.84;100768.69;5043415;28;20212;-61
2022/07/31 05:17:00;;;;;;;1.10;1.00;;;;;;;19.19;91.33;100776.84;5055462;28;20202;-61
2022/07/31 05:20:09;;;;;;;1.08;0.90;;;18.90;99.90;;;19.29;91.92;100792.72;5047704;28;20214;-61
2022/07/31 05:23:09;;;;;;;1.20;1.00;;;19.60;99.90;;;19.35;91.01;100792.59;5041631;28;20194;-61
2022/07/31 05:26:18;;;;;;;0.60;0.55;;;19.10;99.90;;;19.41;91.24;100793.34;5049814;28;20230;-61
2022/07/31 05:29:07;;;;;;;1.48;1.30;;;18.90;99.90;;;19.52;89.71;100790.50;5036619;28;20205;-61
2022/07/31 05:31:56;;;;;;;0.60;0.60;;;19.80;99.90;;;19.53;90.09;100792.28;5047705;28;20205;-61
2022/07/31 05:34:57;;;;;;;0.77;0.70;;;19.30;99.90;;;19.57;89.01;100785.03;5053146;28;20217;-61
2022/07/31 05:37:45;;;;;;;1.40;1.15;;;18.80;99.90;;;19.66;88.82;100784.81;5038662;28;20209;-61
2022/07/31 05:40:35;;;;;;;1.58;1.20;;;;;;;19.77;87.37;100780.09;5040147;28;20213;-61
2022/07/31 05:43:49;;;;;;;0.88;0.80;;;;;;;19.90;87.12;100775.31;5052939;28;20587;-61
2022/07/31 05:46:44;;;;;;;0.80;0.80;;;19.40;99.90;;;20.01;89.73;100803.69;5025981;28;20202;-61
2022/07/31 05:49:32;;;;;;;0.50;0.50;;;19.90;99.90;;;20.06;91.71;100833.97;5022128;28;20240;-61
2022/07/31 05:52:21;;;;;;;0.40;0.40;;;;;;;20.02;93.41;100836.78;5020968;28;20198;-61
2022/07/31 05:55:27;;;;;;;0.93;0.85;;;;;;;20.03;93.67;100843.91;5031471;28;20245;-61
2022/07/31 05:58:34;;;;;;;0.73;0.73;;;;;;;20.05;94.50;100853.69;5051113;28;20206;-61
2022/07/31 06:01:22;;;;;;;1.73;1.30;;;20.30;99.90;;;20.10;94.23;100858.97;5007575;28;20187;-61
2022/07/31 06:04:11;;;;;;;1.02;0.68;;;;;;;19.99;92.35;100823.41;5035009;28;20209;-61
2022/07/31 06:07:06;;;;;;;1.13;0.93;;;;;;;20.10;91.89;100824.06;5022018;28;20209;-61
2022/07/31 06:09:54;;;;;;;0.80;0.77;;;;;;;20.17;93.12;100839.09;5024049;28;20230;-61
2022/07/31 06:12:43;;;;;;;2.20;1.60;;;;;;;20.28;93.30;100846.91;5040572;28;20575;-61
2022/07/31 06:15:32;;;;;;;1.02;0.93;;;;;;;20.44;91.64;100857.25;5046337;28;20222;-61
2022/07/31 06:18:23;;;;;;;1.10;1.00;;;20.20;99.90;;;20.58;90.79;100856.91;5050683;28;20214;-61
2022/07/31 06:21:11;;;;;;;1.00;0.90;;;20.30;99.90;;;20.71;90.36;100844.03;5050255;28;20575;-61
2022/07/31 06:23:59;;;;;;;0.77;0.77;;;20.70;99.90;;;20.91;88.97;100847.13;5083414;28;20587;-61
2022/07/31 06:26:59;;;;;;;0.90;0.90;;;20.60;99.90;;;20.92;85.40;100791.53;5035643;28;20560;-61
2022/07/31 06:29:49;;;;;;;0.93;0.80;;;20.20;99.90;;;20.87;83.76;100742.41;5052612;28;20666;-61
2022/07/31 06:32:37;;;;;;;1.02;0.82;;;;;;;20.93;84.06;100739.53;5042211;28;20206;-61
2022/07/31 06:35:26;;;;;;;1.30;1.10;;;21.20;99.90;;;21.01;83.23;100742.88;5038804;28;20217;-61
2022/07/31 06:38:33;;;;;;;1.23;1.10;;;20.60;99.90;;;21.09;82.77;100738.16;5052445;28;20209;-61
2022/07/31 06:41:48;;;;;;;1.55;1.17;;;;;;;21.09;82.90;100738.16;5012254;28;20206;-61
2022/07/31 06:45:02;;;;;;;1.05;0.93;;;21.30;99.90;;;21.27;84.58;100766.34;5048946;28;20230;-62
2022/07/31 06:47:56;;;;;;;0.65;0.63;;;21.00;99.90;;;21.31;87.17;100787.75;5059994;28;20205;-61
2022/07/31 06:50:57;;;;;;;1.20;1.10;;;;;;;21.28;87.70;100795.00;5043790;28;20243;-61
2022/07/31 06:54:10;;;;;;;1.10;0.85;;;21.10;99.90;;;21.31;86.74;100786.84;5029769;28;20294;-61
2022/07/31 06:56:59;;;;;;;1.25;1.00;;;21.00;99.90;;;21.42;87.46;100800.88;5033839;28;20200;-61
2022/07/31 06:59:47;;;;;;;1.10;0.90;;;;;;;21.04;88.15;100781.31;5037999;28;20205;-60
2022/07/31 07:02:36;;;;;;;1.05;0.90;;;;;;;21.08;89.25;100798.25;5025074;28;20210;-61
2022/07/31 07:05:25;;;;;;;1.45;1.20;;;;;;;21.57;89.26;100839.91;5023608;28;20230;-61
2022/07/31 07:08:16;;;;;;;1.00;0.90;;;;;;;21.73;87.78;100827.75;5018385;28;20199;-61
2022/07/31 07:11:06;;;;;;;0.70;0.70;;;;;;;22.01;85.50;100819.69;5043530;28;20716;-61
2022/07/31 07:14:00;;;;;;;1.42;1.10;;;;;;;21.87;85.29;100789.63;5045943;28;20202;-61
2022/07/31 07:16:48;;;;;;;0.98;0.82;;;;;;;22.26;82.87;100784.81;5037011;28;20202;-61
2022/07/31 07:19:40;;;;;;;1.23;1.13;;;22.00;99.90;;;22.33;83.64;100772.88;5039984;28;20198;-61
2022/07/31 07:22:31;;;;;;;1.48;1.02;;;21.90;99.90;;;22.46;82.35;100763.44;5034310;28;20689;-61
2022/07/31 07:25:22;;;;;;;0.52;0.40;;;;;;;22.76;82.14;100764.19;5047288;28;20230;-61
2022/07/31 07:28:12;;;;;;;1.00;0.75;;;;;;;23.26;79.33;100761.47;5039432;28;20198;-61
2022/07/31 07:31:21;;;;;;;1.67;1.10;;;;;;;23.22;81.04;100746.31;5043758;28;20209;-61
2022/07/31 07:34:10;;;;;;;1.58;1.05;;;;;;;23.35;79.73;100722.44;5019016;28;20202;-61
2022/07/31 07:36:59;;;;;;;0.70;0.70;;;;;;;23.22;79.05;100695.94;5032463;28;20226;-62
2022/07/31 07:39:50;;;;;;;1.00;0.85;;;;;;;23.67;79.97;100726.63;5031971;28;20678;-62
2022/07/31 07:42:39;;;;;;;1.52;1.13;;;24.10;99.90;;;23.50;77.80;100671.47;5035579;28;20214;-61
2022/07/31 07:45:29;;;;;;;1.30;1.00;;;;;;;23.73;78.84;100691.28;5042884;28;20232;-61
2022/07/31 07:48:19;;;;;;;1.05;0.80;;;;;;;23.63;79.42;100674.56;5036976;28;20232;-61
2022/07/31 07:51:28;;;;;;;0.80;0.80;;;;;;;24.07;78.49;100691.63;5051206;28;20228;-62
2022/07/31 07:54:20;;;;;;;1.17;0.82;;;;;;;24.18;77.35;100661.44;5030924;28;20614;-61
2022/07/31 07:57:44;;;;;;;0.80;0.75;;;24.50;99.90;;;24.56;75.61;100647.13;5013621;28;20202;-61
2022/07/31 08:00:56;;;;;;;0.80;0.80;;;;;;;24.56;75.06;100597.59;5029189;28;20202;-62
2022/07/31 08:03:44;;;;;;;1.10;0.82;;;24.20;99.90;;;25.03;75.64;100636.00;5010133;28;20197;-62
2022/07/31 08:06:39;;;;;;;0.77;0.60;;;;;;;25.01;76.31;100616.25;5052596;28;20216;-62
2022/07/31 08:09:27;;;;;;;0.43;0.43;;;;;;;25.36;73.61;100597.41;5032998;28;20678;-62
2022/07/31 08:12:36;;;;;;;0.95;0.85;;;;;;;26.03;72.19;100580.50;5036011;28;20244;-62
2022/07/31 08:15:24;;;;;;;0.70;0.60;;;;;;;25.66;70.42;100501.13;5050525;28;20229;-62
2022/07/31 08:18:26;;;;;;;0.50;0.50;;;;;;;26.97;70.75;100583.50;5041282;28;20691;-61
2022/07/31 08:21:16;;;;;;;0.20;0.20;;;;;;;27.13;68.75;100512.94;5036967;28;20384;-61
2022/07/31 08:24:05;;;;;;;0.65;0.65;;;26.90;99.90;;;27.26;68.98;100508.53;5038085;28;20205;-61
2022/07/31 08:30:04;;;;;;;0.45;0.45;;;;;;;27.42;67.33;100438.78;5045234;28;20205;-62
2022/07/31 08:32:52;;;;;;;0.32;0.32;;;;;;;27.01;67.00;100378.81;5048852;28;20201;-62
2022/07/31 08:35:45;;;;;;;0.50;0.47;;;27.10;99.90;;;27.03;66.96;100363.31;5056728;28;20592;-62
2022/07/31 08:38:39;;;;;;;0.40;0.40;;;28.00;99.90;;;26.90;66.90;100348.69;5036614;28;20572;-61
2022/07/31 08:41:47;;;;;;;0.60;0.60;;;27.70;99.90;;;27.28;67.90;100388.97;5020438;28;20196;-62
2022/07/31 08:44:37;;;;;;;0.20;0.20;;;27.40;99.90;;;27.65;66.51;100393.06;5033566;28;20232;-61
2022/07/31 08:47:26;;;;;;;0.40;0.40;;;;;;;27.64;65.51;100346.00;5037041;28;20202;-62
2022/07/31 08:50:17;;;;;;;0.50;0.50;;;;;;;27.92;65.04;100342.41;5054823;28;20209;-62
2022/07/31 08:53:07;;;;;;;0.88;0.70;;;27.80;99.90;;;27.86;65.61;100323.78;5037995;28;20197;-62
2022/07/31 08:56:28;;;;;;;0.60;0.60;;;28.50;99.90;;;27.68;66.57;100303.22;5036359;28;20205;-62
2022/07/31 08:59:17;;;;;;;0.85;0.80;;;;;;;27.38;65.07;100238.97;5034184;28;20204;-62
2022/07/31 09:02:07;;;;;;;0.50;0.50;;;27.70;99.90;;;27.73;65.19;100274.78;5030568;28;20205;-62
2022/07/31 09:05:00;;;;;;;3.90;2.65;;;;;;;28.14;65.15;100308.38;5555189;23;20235;-82
2022/07/31 09:07:49;;;;;;;0.10;0.10;;;28.60;99.90;;;28.47;64.28;100300.72;5002372;28;20219;-76
2022/07/31 09:10:37;;;;;;;0.35;0.28;;;;;;;28.72;64.22;100266.44;5006771;28;20215;-77
2022/07/31 09:13:26;;;;;;;0.40;0.30;;;29.20;99.90;;;28.92;65.10;100294.06;5012265;28;20220;-77
2022/07/31 09:16:15;;;;;;;0.20;0.20;;;;;;;28.70;63.83;100233.91;5001712;28;20230;-76
2022/07/31 09:19:04;;;;;;;0.45;0.43;;;29.00;99.90;;;28.88;62.42;100204.56;4984320;28;20218;-77
2022/07/31 09:22:26;;;;;;;0.30;0.28;;;30.40;99.90;;;30.22;61.32;100255.63;5007654;28;20196;-77
2022/07/31 09:25:18;;;;;;;0.40;0.30;;;;;;;30.40;61.32;100225.19;5011834;28;20702;-77
2022/07/31 09:28:06;;;;;;;0.30;0.30;;;30.40;99.90;;;30.28;59.79;100149.75;4995585;28;20210;-76
2022/07/31 09:30:55;;;;;;;0.57;0.40;;;31.40;99.90;;;30.75;59.37;100173.34;4992780;28;20210;-76
2022/07/31 09:34:07;;;;;;;0.65;0.65;;;31.00;99.90;;;30.50;58.79;100089.78;5006339;28;20584;-76
2022/07/31 09:36:55;;;;;;;0.30;0.20;;;;;;;30.19;58.70;100025.88;5011775;28;20226;-76
2022/07/31 09:40:16;;;;;;;0.47;0.43;;;;;;;30.08;60.46;100028.56;5008423;28;20200;-75
2022/07/31 09:43:16;;;;;;;0.35;0.28;;;30.70;99.90;;;29.67;59.56;99959.00;4986983;28;20199;-75
2022/07/31 09:46:06;;;;;;;0.10;0.10;;;31.00;99.90;;;30.54;59.92;100056.66;4973636;28;20224;-76
2022/07/31 09:48:55;;;;;;;0.50;0.40;;;30.80;99.90;;;31.70;59.07;100121.00;4989214;28;20687;-77
2022/07/31 09:51:49;;;;;;;1.02;0.60;;;31.80;99.20;;;31.55;57.47;100045.72;4985516;28;20227;-76
2022/07/31 09:54:40;;;;;;;0.30;0.30;;;31.30;99.10;;;31.07;57.93;99958.63;4981698;28;20232;-76
2022/07/31 09:57:53;;;;;;;0.50;0.30;;;31.50;99.50;;;31.63;57.23;100004.94;5010194;28;20279;-76
2022/07/31 10:00:42;;;;;;;0.70;0.50;;;31.90;95.80;;;31.50;56.38;99936.78;4982846;28;20203;-76
2022/07/31 10:03:30;;;;;;;0.25;0.20;;;32.20;96.30;;;32.28;56.59;100005.75;4998225;28;20219;-74
2022/07/31 10:06:20;;;;;;;0.55;0.40;;;32.80;96.30;;;33.20;55.49;100018.44;4984189;28;20230;-74
2022/07/31 10:09:09;;;;;;;1.20;0.70;;;33.30;95.50;;;32.71;56.83;99946.19;5011195;28;20214;-74
2022/07/31 10:12:18;;;;;;;0.57;0.32;;;33.00;93.00;;;31.67;56.23;99787.72;5013318;28;20234;-74
2022/07/31 10:15:11;;;;;;;0.30;0.20;;;33.10;96.80;;;31.50;56.28;99781.00;5011918;28;20758;-74
2022/07/31 10:18:02;;;;;;;0.45;0.30;;;32.30;92.30;;;31.11;56.04;99743.47;5012199;28;20210;-74
2022/07/31 10:21:16;;;;;;;0.40;0.30;;;32.10;96.30;;;31.02;57.08;99757.91;4998876;28;20267;-74
2022/07/31 10:24:22;;;;;;;0.57;0.40;;;32.30;95.90;;;30.81;57.94;99722.41;4997026;28;20210;-74
2022/07/31 10:27:18;;;;;;;0.70;0.45;;;32.40;94.00;;;31.26;57.10;99768.63;4997281;28;20195;-74
2022/07/31 10:30:12;;;;;;;0.20;0.10;;;31.80;96.30;;;31.07;56.45;99729.22;4988356;28;20208;-74
2022/07/31 10:33:11;;;;;;;0.60;0.38;;;31.70;95.90;;;31.48;57.85;99785.75;5007633;28;20226;-74
2022/07/31 10:36:43;;;;;;;0.70;0.40;;;32.20;93.90;;;32.23;55.31;99789.09;4987089;28;20228;-74
2022/07/31 10:40:06;;;;;;;0.50;0.40;;;33.20;90.70;;;32.87;54.66;99795.06;5003550;28;20199;-74
2022/07/31 10:43:28;;;;;;;0.30;0.22;;;33.70;92.20;;;32.16;53.62;99649.28;4988479;28;20204;-74
2022/07/31 10:46:49;;;;;;;1.17;0.70;;;;;;;31.67;54.00;99593.63;4967108;28;20215;-74
2022/07/31 10:50:01;;;;;;;0.52;0.32;;;;;;;31.11;54.41;99542.22;4996422;28;20199;-74
2022/07/31 10:52:49;;;;;;;0.25;0.20;;;;;;;31.98;55.36;99665.53;5002119;28;20231;-74
2022/07/31 10:55:44;;;;;;;0.40;0.30;;;;;;;32.29;53.97;99654.50;4985931;28;20215;-74
2022/07/31 10:58:57;;;;;;;0.57;0.40;;;33.00;86.00;;;32.61;52.89;99648.75;4992322;28;20218;-74
2022/07/31 11:02:04;;;;;;;0.35;0.30;;;;;;;32.13;53.58;99578.44;5002908;28;20200;-73
2022/07/31 11:05:22;;;;;;;0.60;0.40;;;32.90;88.30;;;32.75;54.27;99640.97;4996465;28;20224;-74
2022/07/31 11:08:51;;;;;;;0.50;0.38;;;33.40;84.50;;;32.88;53.61;99618.75;5002555;28;20219;-73
2022/07/31 11:12:19;;;;;;;0.98;0.73;;;33.70;92.60;;;33.07;52.89;99606.88;4987368;28;20219;-74
2022/07/31 11:15:29;;;;;;;0.68;0.40;;;;;;;33.60;52.75;99634.50;4986918;28;20231;-74
2022/07/31 11:19:05;;;;;;;1.55;0.75;;;33.60;79.90;;;32.57;51.65;99463.94;4993434;28;20203;-74
2022/07/31 11:21:56;;;;;;;1.65;0.73;;;;;;;33.31;51.26;99548.84;5003201;28;20210;-73
2022/07/31 11:24:57;;;;;;;1.83;0.80;;;34.10;92.70;;;33.49;52.04;99557.09;5003139;28;20237;-73
2022/07/31 11:27:45;;;;;;;1.25;0.70;;;;;;;33.54;52.34;99539.16;5000387;28;20209;-74
2022/07/31 11:30:34;;;;;;;1.88;0.93;;;;;;;33.74;52.26;99556.34;4989471;28;20196;-73
2022/07/31 11:33:44;;;;;;;1.75;0.77;;;33.50;89.40;;;33.45;50.38;99478.94;4995920;28;20231;-75
2022/07/31 11:36:33;;;;;;;1.30;0.63;;;33.60;90.40;;;33.89;51.19;99532.03;5009992;28;20227;-78
2022/07/31 11:39:22;;;;;;;0.85;0.55;;;33.90;89.60;;;33.60;51.04;99475.50;4986327;28;20204;-73
2022/07/31 11:42:28;;;;;;;0.98;0.60;;;33.30;84.80;;;32.49;50.73;99340.63;5003174;28;20206;-73
2022/07/31 11:45:23;;;;;;;1.05;0.60;;;;;;;33.60;51.39;99486.47;4999567;28;20227;-74
2022/07/31 11:48:16;;;;;;;1.02;0.65;;;33.30;75.60;;;33.74;50.39;99474.06;5001802;28;20200;-74
2022/07/31 11:51:06;;;;;;;0.82;0.50;;;33.30;77.10;;;33.50;49.71;99432.72;5000644;28;20279;-74
2022/07/31 11:53:56;;;;;;;1.35;0.73;;;33.60;82.10;;;33.24;49.59;99361.38;5003504;28;20238;-76
2022/07/31 11:56:45;;;;;;;0.10;0.00;;;34.60;81.50;;;33.02;50.21;99341.63;5000974;28;20233;-76
2022/07/31 11:59:35;;;;;;;0.55;0.35;;;32.90;84.90;;;33.42;50.79;99411.59;5001277;28;20258;-75
2022/07/31 12:02:33;;;;;;;1.00;0.50;;;33.40;87.30;;;33.40;50.92;99402.66;4988648;28;20207;-75
2022/07/31 12:05:22;;;;;;;0.98;0.70;;;;;;;32.93;49.32;99289.69;4989398;28;20211;-76
2022/07/31 12:08:27;;;;;;;1.63;0.85;;;33.00;84.10;;;32.78;49.99;99304.94;4998215;28;20198;-75
2022/07/31 12:11:20;;;;;;;1.27;0.60;;;33.80;83.40;;;33.32;50.49;99367.81;5272071;23;20234;-74
2022/07/31 12:14:08;;;;;;;0.60;0.40;;;35.00;83.70;;;34.27;50.45;99443.00;5023342;28;20230;-74
2022/07/31 12:16:56;;;;;;;0.57;0.38;;;34.60;78.70;;;34.07;49.08;99376.50;5017234;28;20229;-74
2022/07/31 12:19:45;;;;;;;0.60;0.30;;;;;;;34.01;48.48;99334.13;5030774;28;20210;-74
2022/07/31 12:22:33;;;;;;;0.50;0.32;;;34.10;69.80;;;33.42;49.34;99265.47;5050572;28;20201;-73
2022/07/31 12:25:22;;;;;;;0.60;0.30;;;;;;;34.06;50.24;99357.47;5051974;28;20205;-74
2022/07/31 12:28:13;;;;;;;4.28;1.33;;;35.60;82.80;;;35.30;49.48;99450.25;5038335;28;20202;-74
2022/07/31 12:31:02;;;;;;;8.48;2.15;;;;;;;34.96;48.34;99382.47;5035007;28;20234;-73
2022/07/31 12:33:50;;;;;;;8.05;1.70;;;34.80;70.40;;;34.32;48.24;99284.22;5040273;28;20230;-77
2022/07/31 12:36:38;;;;;;;8.35;1.73;;;34.70;73.80;;;33.96;48.62;99243.25;5051740;28;20206;-76
2022/07/31 12:39:27;;;;;;;22.45;4.20;;;35.10;68.40;;;34.74;47.80;99319.88;5041898;28;20670;-79
2022/07/31 12:42:37;;;;;;;12.52;5.55;;;35.50;69.10;;;34.62;47.30;99282.78;5048762;28;20205;-76